Terminal Aerodrome Forecast
Issued by NWS

Home | Current Version | Previous Version | Text Only | Print | Product List | Glossary On
Versions: 1 2 3 4 5 6 7 8 9 10 11 12 13 14
125
FTUS42 TJSJ 232339
TAFISX
TAF
TISX 232339Z 2400/2424 08013KT P6SM VCSH FEW021 SCT050
     FM241400 09014KT P6SM FEW026
     FM242200 08010KT P6SM FEW028=

USA.gov is the U.S. government's official web portal to all federal, state and local government web resources and services.